createdAt,value
2022-09-23T00:01:35.007Z,3.00
2022-09-23T00:04:01.327Z,8.30
2022-09-23T00:06:30.276Z,6.80
2022-09-23T00:08:56.471Z,3.72
2022-09-23T00:11:26.794Z,5.97
2022-09-23T00:13:55.020Z,4.28
2022-09-23T00:16:32.460Z,5.45
2022-09-23T00:18:58.837Z,4.10
2022-09-23T00:21:25.238Z,4.78
2022-09-23T00:23:51.612Z,7.68
2022-09-23T00:26:18.804Z,6.65
2022-09-23T00:28:45.787Z,7.50
2022-09-23T00:31:14.354Z,7.13
2022-09-23T00:33:40.745Z,7.35
2022-09-23T00:36:08.253Z,8.43
2022-09-23T00:38:34.505Z,4.93
2022-09-23T00:41:02.111Z,6.57
2022-09-23T00:43:37.728Z,10.48
2022-09-23T00:46:04.156Z,5.82
2022-09-23T00:48:30.852Z,7.45
2022-09-23T00:50:57.044Z,10.20
2022-09-23T00:53:26.576Z,7.78
2022-09-23T00:55:56.229Z,6.70
2022-09-23T00:58:25.180Z,8.85
2022-09-23T01:00:51.536Z,6.05
2022-09-23T01:03:19.711Z,8.85
2022-09-23T01:05:46.845Z,9.27
2022-09-23T01:08:13.954Z,10.13
2022-09-23T01:10:42.906Z,9.57
2022-09-23T01:13:11.936Z,11.50
2022-09-23T01:16:04.274Z,11.57
2022-09-23T01:18:48.919Z,10.18
2022-09-23T01:21:27.788Z,16.55
2022-09-23T01:24:09.713Z,7.90
2022-09-23T01:26:56.682Z,15.45
2022-09-23T01:29:30.888Z,10.52
2022-09-23T01:31:57.071Z,9.93
2022-09-23T01:34:35.880Z,9.88
2022-09-23T01:37:08.884Z,8.82
2022-09-23T01:39:37.488Z,15.55
2022-09-23T01:42:19.830Z,9.45
2022-09-23T01:44:48.496Z,18.17
2022-09-23T01:47:17.397Z,14.25
2022-09-23T01:50:01.411Z,12.27
2022-09-23T01:52:31.178Z,10.05
2022-09-23T01:55:01.654Z,10.30
2022-09-23T01:57:31.742Z,11.07
2022-09-23T02:00:05.308Z,12.57
2022-09-23T02:02:51.913Z,11.20
2022-09-23T02:05:21.903Z,11.57
2022-09-23T02:08:03.093Z,15.38
2022-09-23T02:10:32.909Z,9.77
2022-09-23T02:13:04.083Z,11.52
2022-09-23T02:15:33.544Z,13.13
2022-09-23T02:18:08.679Z,17.75
2022-09-23T02:20:37.402Z,9.98
2022-09-23T02:23:09.741Z,12.32
2022-09-23T02:25:57.188Z,8.93
2022-09-23T02:28:30.774Z,9.73
2022-09-23T02:31:19.705Z,10.50
2022-09-23T02:34:09.224Z,11.52
2022-09-23T02:36:41.525Z,11.85
2022-09-23T02:39:11.315Z,9.02
2022-09-23T02:41:46.149Z,9.70
2022-09-23T02:44:14.462Z,11.70
2022-09-23T02:46:43.437Z,12.15
2022-09-23T02:49:26.559Z,14.88
2022-09-23T02:51:54.388Z,10.38
2022-09-23T02:54:22.711Z,12.60
2022-09-23T02:56:49.460Z,12.52
2022-09-23T02:59:19.293Z,15.30
2022-09-23T03:01:54.125Z,12.77
2022-09-23T03:04:34.946Z,13.32
2022-09-23T03:07:01.275Z,13.48
2022-09-23T03:09:33.610Z,13.05
2022-09-23T03:12:15.609Z,14.23
2022-09-23T03:14:42.981Z,19.08
2022-09-23T03:17:12.953Z,15.18
2022-09-23T03:19:43.452Z,14.90
2022-09-23T03:22:31.067Z,14.85
2022-09-23T03:25:01.458Z,14.70
2022-09-23T03:27:28.973Z,13.48
2022-09-23T03:29:56.238Z,12.88
2022-09-23T03:32:24.553Z,13.98
2022-09-23T03:34:52.069Z,14.00
2022-09-23T03:37:21.487Z,14.90
2022-09-23T03:40:03.926Z,15.27
2022-09-23T03:42:31.388Z,17.30
2022-09-23T03:44:57.690Z,12.70
2022-09-23T03:47:26.024Z,14.43
2022-09-23T03:49:52.782Z,15.35
2022-09-23T03:52:20.693Z,16.00
2022-09-23T03:54:46.900Z,13.73
2022-09-23T03:57:13.190Z,12.52
2022-09-23T03:59:39.733Z,12.80
2022-09-23T04:02:07.724Z,14.93
2022-09-23T04:04:36.321Z,16.85
2022-09-23T04:07:02.531Z,15.27
2022-09-23T04:09:28.772Z,15.02
2022-09-23T04:11:55.267Z,13.68
2022-09-23T04:14:21.957Z,12.23
2022-09-23T04:16:49.087Z,12.68
2022-09-23T04:19:15.631Z,12.15
2022-09-23T04:21:42.439Z,12.77
2022-09-23T04:24:09.237Z,12.50
2022-09-23T04:26:35.717Z,14.60
2022-09-23T04:29:02.280Z,14.88
2022-09-23T04:31:28.751Z,14.68
2022-09-23T04:33:55.383Z,16.38
2022-09-23T04:36:21.876Z,13.88
2022-09-23T04:38:49.092Z,17.20
2022-09-23T04:41:15.888Z,13.57
2022-09-23T04:43:42.837Z,14.82
2022-09-23T04:46:10.913Z,14.68
2022-09-23T04:48:37.661Z,17.52
2022-09-23T04:51:04.847Z,14.95
2022-09-23T04:53:31.632Z,15.00
2022-09-23T04:56:01.724Z,15.85
2022-09-23T04:58:28.972Z,15.80
2022-09-23T05:00:55.199Z,16.40
2022-09-23T05:03:21.440Z,14.27
2022-09-23T05:05:47.622Z,16.00
2022-09-23T05:08:13.878Z,15.02
2022-09-23T05:10:40.061Z,17.38
2022-09-23T05:13:06.351Z,15.85
2022-09-23T05:15:32.579Z,13.57
2022-09-23T05:17:59.123Z,13.68
2022-09-23T05:20:25.503Z,11.57
2022-09-23T05:22:55.425Z,17.33
2022-09-23T05:25:23.610Z,14.20
2022-09-23T05:27:49.836Z,12.52
2022-09-23T05:30:16.085Z,12.60
2022-09-23T05:32:42.257Z,15.38
2022-09-23T05:35:08.547Z,12.23
2022-09-23T05:37:34.903Z,10.52
2022-09-23T05:40:01.188Z,14.05
2022-09-23T05:42:28.439Z,13.45
2022-09-23T05:44:56.077Z,12.20
2022-09-23T05:47:22.580Z,12.07
2022-09-23T05:49:59.742Z,8.93
2022-09-23T05:52:26.699Z,9.70
2022-09-23T05:54:53.643Z,9.95
2022-09-23T05:57:20.928Z,10.25
2022-09-23T05:59:47.648Z,10.98
2022-09-23T06:02:14.706Z,14.50
2022-09-23T06:04:41.001Z,8.18
2022-09-23T06:07:07.264Z,11.10
2022-09-23T06:09:36.491Z,12.07
2022-09-23T06:12:03.154Z,9.70
2022-09-23T06:14:29.329Z,12.38
2022-09-23T06:16:55.596Z,13.93
2022-09-23T06:19:21.834Z,11.02
2022-09-23T06:21:48.430Z,11.30
2022-09-23T06:24:18.543Z,13.52
2022-09-23T06:26:47.498Z,11.15
2022-09-23T06:29:14.314Z,13.32
2022-09-23T06:31:41.783Z,13.65
2022-09-23T06:34:13.455Z,12.43
2022-09-23T06:36:44.319Z,12.07
2022-09-23T06:39:11.005Z,9.50
2022-09-23T06:41:37.761Z,11.80
2022-09-23T06:44:04.083Z,13.18
2022-09-23T06:46:31.911Z,13.52
2022-09-23T06:48:58.260Z,8.55
2022-09-23T06:51:24.439Z,15.10
2022-09-23T06:53:50.724Z,20.58
2022-09-23T06:56:17.711Z,14.68
2022-09-23T06:58:43.892Z,11.40
2022-09-23T07:01:11.774Z,13.73
2022-09-23T07:03:38.589Z,13.88
2022-09-23T07:06:05.520Z,8.20
2022-09-23T07:08:33.616Z,8.38
2022-09-23T07:11:01.186Z,13.88
2022-09-23T07:13:27.731Z,9.93
2022-09-23T07:15:55.666Z,9.98
2022-09-23T07:18:25.371Z,8.80
2022-09-23T07:20:51.905Z,7.95
2022-09-23T07:23:18.199Z,10.73
2022-09-23T07:25:46.460Z,7.90
2022-09-23T07:28:13.191Z,8.25
2022-09-23T07:30:48.071Z,14.85
2022-09-23T07:33:31.058Z,8.75
2022-09-23T07:35:58.644Z,8.43
2022-09-23T07:38:30.007Z,7.45
2022-09-23T07:41:23.704Z,9.55
2022-09-23T07:43:50.436Z,7.97
2022-09-23T07:46:17.704Z,8.57
2022-09-23T07:48:45.602Z,7.70
2022-09-23T07:51:26.157Z,7.80
2022-09-23T07:53:53.416Z,11.75
2022-09-23T07:56:20.324Z,9.32
2022-09-23T07:58:46.881Z,6.68
2022-09-23T08:01:13.619Z,8.00
2022-09-23T08:03:39.966Z,11.70
2022-09-23T08:06:09.607Z,9.23
2022-09-23T08:08:39.248Z,9.43
2022-09-23T08:11:06.028Z,10.25
2022-09-23T08:13:32.524Z,9.48
2022-09-23T08:15:58.875Z,6.78
2022-09-23T08:18:25.241Z,8.55
2022-09-23T08:20:51.693Z,9.85
2022-09-23T08:23:18.306Z,10.82
2022-09-23T08:25:47.493Z,9.02
2022-09-23T08:28:16.265Z,6.65
2022-09-23T08:30:43.593Z,6.55
2022-09-23T08:33:10.996Z,8.27
2022-09-23T08:35:37.601Z,6.32
2022-09-23T08:38:03.847Z,9.80
2022-09-23T08:40:30.323Z,9.70
2022-09-23T08:42:56.746Z,9.70
2022-09-23T08:45:27.085Z,6.32
2022-09-23T08:48:09.530Z,9.60
2022-09-23T08:50:43.639Z,8.68
2022-09-23T08:53:16.330Z,6.88
2022-09-23T08:55:46.158Z,9.45
2022-09-23T08:58:24.943Z,10.23
2022-09-23T09:01:07.505Z,6.72
2022-09-23T09:03:54.023Z,8.27
2022-09-23T09:06:27.765Z,11.15
2022-09-23T09:08:56.856Z,7.88
2022-09-23T09:11:27.400Z,7.88
2022-09-23T09:13:58.480Z,8.68
2022-09-23T09:16:58.486Z,11.45
2022-09-23T09:19:28.251Z,7.15
2022-09-23T09:21:55.427Z,6.25
2022-09-23T09:24:26.378Z,11.75
2022-09-23T09:26:52.737Z,9.93
2022-09-23T09:29:35.530Z,6.03
2022-09-23T09:32:11.823Z,5.40
2022-09-23T09:34:47.203Z,7.60
2022-09-23T09:37:33.637Z,8.35
2022-09-23T09:40:00.155Z,8.43
2022-09-23T09:42:27.434Z,9.43
2022-09-23T09:44:59.647Z,10.73
2022-09-23T09:47:31.996Z,8.50
2022-09-23T09:50:06.834Z,9.55
2022-09-23T09:55:17.103Z,11.50
2022-09-23T09:57:49.695Z,10.68
2022-09-23T10:00:21.901Z,6.88
2022-09-23T10:02:55.447Z,12.82
2022-09-23T10:05:25.672Z,8.60
2022-09-23T10:07:51.944Z,7.93
2022-09-23T10:10:32.428Z,11.07
2022-09-23T10:13:13.307Z,11.40
2022-09-23T10:15:44.881Z,7.88
2022-09-23T10:18:19.511Z,6.95
2022-09-23T10:20:46.073Z,8.97
2022-09-23T10:23:16.175Z,9.77
2022-09-23T10:25:42.584Z,10.85
2022-09-23T10:28:29.193Z,6.97
2022-09-23T10:31:03.581Z,6.80
2022-09-23T10:33:31.111Z,7.20
2022-09-23T10:35:57.462Z,6.75
2022-09-23T10:38:23.689Z,8.90
2022-09-23T10:44:06.801Z,7.95
2022-09-23T10:46:39.661Z,7.93
2022-09-23T10:49:18.012Z,7.60
2022-09-23T10:52:02.737Z,7.72
2022-09-23T10:54:56.275Z,6.88
2022-09-23T10:57:37.914Z,7.07
2022-09-23T11:00:10.341Z,7.15
2022-09-23T11:02:36.569Z,5.75
2022-09-23T11:05:18.038Z,7.75
2022-09-23T11:08:02.835Z,5.18
2022-09-23T11:10:49.707Z,6.50
2022-09-23T11:13:31.305Z,7.30
2022-09-23T11:16:12.614Z,4.97
2022-09-23T11:18:50.882Z,10.38
2022-09-23T11:21:20.117Z,7.05
2022-09-23T11:23:58.295Z,6.78
2022-09-23T11:26:50.201Z,5.75
2022-09-23T11:29:25.159Z,6.05
2022-09-23T11:32:10.184Z,5.28
2022-09-23T11:34:42.331Z,5.88
2022-09-23T11:37:14.000Z,9.52
2022-09-23T11:39:43.966Z,8.43
2022-09-23T11:42:14.432Z,7.15
2022-09-23T11:44:44.366Z,6.88
2022-09-23T11:47:29.132Z,6.18
2022-09-23T11:50:07.392Z,7.22
2022-09-23T11:56:34.223Z,6.38
2022-09-23T11:59:21.615Z,7.57
2022-09-23T12:02:20.107Z,8.25
2022-09-23T12:04:57.902Z,5.63
2022-09-23T12:07:28.357Z,5.55
2022-09-23T12:09:58.938Z,7.45
2022-09-23T12:12:37.353Z,6.13
2022-09-23T12:15:22.314Z,5.80
2022-09-23T12:17:59.294Z,9.98
2022-09-23T12:20:45.883Z,7.38
2022-09-23T12:23:13.132Z,10.45
2022-09-23T12:25:51.679Z,7.72
2022-09-23T12:28:20.719Z,7.00
2022-09-23T12:30:48.029Z,5.28
2022-09-23T12:33:21.851Z,11.23
2022-09-23T12:35:48.260Z,5.32
2022-09-23T12:38:20.693Z,3.38
2022-09-23T12:40:47.703Z,6.57
2022-09-23T12:43:30.671Z,4.13
2022-09-23T12:46:16.477Z,6.20
2022-09-23T12:48:44.024Z,6.55
2022-09-23T12:51:16.200Z,8.63
2022-09-23T12:53:52.236Z,5.75
2022-09-23T12:56:18.458Z,4.88
2022-09-23T12:58:44.678Z,5.32
2022-09-23T13:01:14.138Z,5.15
2022-09-23T13:04:17.078Z,4.30
2022-09-23T13:06:55.450Z,3.33
2022-09-23T13:09:32.630Z,5.93
2022-09-23T13:12:00.839Z,4.40
2022-09-23T13:14:28.453Z,4.22
2022-09-23T13:16:55.996Z,6.85
2022-09-23T13:19:28.166Z,5.78
2022-09-23T13:21:54.427Z,6.13
2022-09-23T13:24:24.823Z,4.95
2022-09-23T13:26:53.680Z,6.03
2022-09-23T13:29:27.877Z,4.95
2022-09-23T13:31:57.769Z,4.72
2022-09-23T13:34:26.024Z,3.15
2022-09-23T13:36:53.499Z,4.18
2022-09-23T13:39:24.423Z,6.45
2022-09-23T13:41:52.670Z,4.32
2022-09-23T13:44:19.987Z,4.10
2022-09-23T13:46:51.313Z,5.40
2022-09-23T13:49:25.588Z,3.88
2022-09-23T13:51:55.327Z,4.65
2022-09-23T13:54:40.124Z,5.40
2022-09-23T13:57:06.430Z,4.90
2022-09-23T13:59:41.484Z,3.25
2022-09-23T14:02:11.936Z,4.93
2022-09-23T14:04:38.267Z,3.60
2022-09-23T14:07:06.677Z,6.13
2022-09-23T14:09:33.960Z,6.28
2022-09-23T14:12:00.689Z,8.65
2022-09-23T14:14:27.726Z,5.07
2022-09-23T14:16:54.483Z,3.70
2022-09-23T14:19:21.946Z,6.30
2022-09-23T14:21:49.352Z,5.00
2022-09-23T14:24:15.554Z,6.75
2022-09-23T14:26:43.160Z,5.65
2022-09-23T14:29:13.934Z,3.65
2022-09-23T14:31:40.370Z,4.25
2022-09-23T14:34:26.592Z,5.65
2022-09-23T14:37:11.301Z,3.42
2022-09-23T14:39:37.498Z,5.32
2022-09-23T14:42:06.965Z,3.72
2022-09-23T14:44:35.451Z,5.47
2022-09-23T14:47:01.679Z,6.05
2022-09-23T14:49:27.960Z,2.78
2022-09-23T14:51:55.331Z,3.53
2022-09-23T14:54:39.587Z,2.42
2022-09-23T14:57:25.297Z,3.47
2022-09-23T14:59:53.470Z,4.53
2022-09-23T15:02:33.276Z,3.03
2022-09-23T15:05:08.599Z,3.92
2022-09-23T15:07:36.603Z,2.63
2022-09-23T15:10:04.535Z,4.78
2022-09-23T15:12:30.709Z,2.88
2022-09-23T15:14:58.362Z,4.60
2022-09-23T15:17:24.689Z,3.92
2022-09-23T15:19:54.119Z,4.32
2022-09-23T15:22:20.621Z,4.20
2022-09-23T15:24:46.917Z,5.60
2022-09-23T15:27:32.699Z,3.70
2022-09-23T15:30:12.526Z,2.67
2022-09-23T15:32:42.168Z,5.75
2022-09-23T15:35:11.413Z,2.20
2022-09-23T15:37:37.730Z,4.43
2022-09-23T15:40:04.215Z,5.50
2022-09-23T15:42:30.844Z,4.70
2022-09-23T15:44:58.294Z,4.88
2022-09-23T15:47:24.483Z,2.88
2022-09-23T15:49:51.484Z,5.55
2022-09-23T15:52:18.558Z,3.58
2022-09-23T15:54:45.872Z,3.85
2022-09-23T15:57:12.509Z,3.65
2022-09-23T15:59:38.756Z,5.13
2022-09-23T16:02:07.715Z,3.63
2022-09-23T16:04:34.070Z,5.38
2022-09-23T16:07:01.515Z,4.65
2022-09-23T16:09:31.435Z,2.55
2022-09-23T16:11:57.664Z,7.90
2022-09-23T16:14:24.211Z,4.47
2022-09-23T16:16:50.477Z,5.03
2022-09-23T16:19:17.559Z,3.50
2022-09-23T16:21:44.562Z,4.70
2022-09-23T16:24:13.945Z,3.92
2022-09-23T16:26:40.559Z,5.03
2022-09-23T16:29:06.875Z,4.35
2022-09-23T16:31:33.258Z,7.95
2022-09-23T16:34:02.457Z,3.58
2022-09-23T16:36:32.869Z,3.85
2022-09-23T16:38:59.853Z,4.35
2022-09-23T16:41:29.073Z,6.40
2022-09-23T16:43:56.124Z,5.10
2022-09-23T16:46:23.748Z,3.40
2022-09-23T16:48:52.920Z,5.15
2022-09-23T16:51:21.001Z,4.22
2022-09-23T16:53:49.037Z,8.07
2022-09-23T16:56:16.809Z,4.53
2022-09-23T16:58:47.961Z,7.07
2022-09-23T17:01:34.589Z,7.63
2022-09-23T17:04:00.885Z,6.80
2022-09-23T17:06:27.811Z,4.25
2022-09-23T17:08:54.069Z,6.10
2022-09-23T17:11:20.760Z,5.50
2022-09-23T17:13:47.498Z,4.65
2022-09-23T17:16:29.582Z,5.60
2022-09-23T17:18:56.259Z,5.32
2022-09-23T17:21:26.748Z,5.35
2022-09-23T17:23:53.523Z,7.25
2022-09-23T17:26:23.220Z,8.30
2022-09-23T17:28:54.226Z,7.97
2022-09-23T17:31:24.016Z,13.35
2022-09-23T17:33:51.380Z,6.60
2022-09-23T17:36:18.193Z,6.20
2022-09-23T17:38:45.090Z,8.65
2022-09-23T17:41:12.355Z,10.88
2022-09-23T17:43:38.995Z,12.77
2022-09-23T17:46:06.786Z,8.25
2022-09-23T17:48:34.301Z,7.60
2022-09-23T17:51:01.999Z,4.93
2022-09-23T17:53:32.186Z,6.97
2022-09-23T17:56:04.108Z,8.25
2022-09-23T17:58:31.660Z,8.07
2022-09-23T18:00:58.254Z,7.03
2022-09-23T18:03:25.636Z,4.35
2022-09-23T18:05:52.206Z,5.80
2022-09-23T18:08:18.550Z,7.57
2022-09-23T18:10:44.769Z,9.75
2022-09-23T18:13:11.030Z,6.28
2022-09-23T18:15:37.802Z,6.30
2022-09-23T18:18:04.514Z,6.80
2022-09-23T18:20:30.949Z,5.80
2022-09-23T18:22:57.269Z,7.47
2022-09-23T18:25:38.792Z,10.25
2022-09-23T18:28:06.076Z,9.65
2022-09-23T18:30:33.526Z,7.65
2022-09-23T18:32:59.932Z,9.05
2022-09-23T18:35:26.405Z,9.55
2022-09-23T18:37:52.615Z,7.00
2022-09-23T18:40:19.009Z,7.22
2022-09-23T18:42:45.220Z,6.72
2022-09-23T18:45:11.770Z,9.45
2022-09-23T18:47:56.940Z,5.38
2022-09-23T18:50:42.998Z,7.00
2022-09-23T18:53:09.898Z,7.22
2022-09-23T18:55:36.439Z,8.68
2022-09-23T18:58:02.908Z,6.82
2022-09-23T19:00:29.837Z,8.02
2022-09-23T19:02:56.076Z,5.07
2022-09-23T19:05:22.266Z,4.10
2022-09-23T19:07:48.438Z,5.28
2022-09-23T19:10:14.677Z,7.70
2022-09-23T19:12:40.896Z,7.95
2022-09-23T19:15:08.038Z,4.32
2022-09-23T19:17:34.377Z,7.20
2022-09-23T19:20:00.670Z,3.38
2022-09-23T19:22:26.994Z,6.82
2022-09-23T19:24:53.193Z,6.68
2022-09-23T19:27:19.398Z,9.35
2022-09-23T19:29:47.272Z,8.70
2022-09-23T19:32:15.820Z,7.93
2022-09-23T19:34:42.039Z,6.05
2022-09-23T19:37:08.275Z,7.10
2022-09-23T19:39:35.038Z,8.63
2022-09-23T19:42:01.630Z,6.57
2022-09-23T19:44:27.903Z,4.90
2022-09-23T19:46:56.950Z,5.75
2022-09-23T19:49:24.347Z,10.23
2022-09-23T19:51:50.606Z,6.38
2022-09-23T19:54:20.663Z,7.70
2022-09-23T19:56:48.441Z,7.82
2022-09-23T19:59:18.478Z,9.68
2022-09-23T20:01:45.640Z,5.25
2022-09-23T20:04:11.955Z,5.85
2022-09-23T20:06:38.725Z,7.70
2022-09-23T20:09:05.475Z,5.53
2022-09-23T20:11:32.351Z,9.23
2022-09-23T20:14:02.087Z,4.90
2022-09-23T20:16:31.609Z,5.57
2022-09-23T20:18:59.575Z,5.75
2022-09-23T20:21:26.115Z,6.90
2022-09-23T20:23:52.626Z,7.18
2022-09-23T20:26:37.428Z,8.95
2022-09-23T20:29:03.998Z,5.63
2022-09-23T20:31:30.296Z,9.80
2022-09-23T20:33:58.104Z,6.18
2022-09-23T20:36:25.692Z,7.05
2022-09-23T20:38:54.964Z,9.82
2022-09-23T20:41:21.389Z,9.77
2022-09-23T20:43:48.181Z,9.00
2022-09-23T20:46:17.464Z,7.93
2022-09-23T20:48:46.276Z,8.95
2022-09-23T20:51:12.510Z,10.90
2022-09-23T20:53:38.771Z,10.40
2022-09-23T20:56:05.835Z,7.80
2022-09-23T20:58:36.515Z,8.77
2022-09-23T21:01:04.391Z,9.32
2022-09-23T21:03:31.672Z,4.65
2022-09-23T21:06:01.540Z,9.32
2022-09-23T21:08:27.885Z,7.07
2022-09-23T21:10:57.892Z,11.50
2022-09-23T21:13:24.135Z,10.00
2022-09-23T21:15:50.689Z,16.23
2022-09-23T21:18:21.707Z,8.95
2022-09-23T21:20:55.775Z,10.60
2022-09-23T21:23:29.145Z,6.03
2022-09-23T21:26:01.563Z,10.50
2022-09-23T21:28:31.913Z,9.00
2022-09-23T21:30:59.329Z,6.18
2022-09-23T21:33:25.554Z,9.70
2022-09-23T21:35:58.842Z,5.45
2022-09-23T21:38:25.056Z,7.43
2022-09-23T21:40:58.416Z,6.88
2022-09-23T21:43:25.688Z,5.55
2022-09-23T21:45:58.777Z,9.90
2022-09-23T21:48:32.434Z,7.88
2022-09-23T21:51:02.810Z,5.38
2022-09-23T21:53:29.813Z,8.95
2022-09-23T21:56:05.086Z,6.70
2022-09-23T21:58:31.826Z,8.32
2022-09-23T22:00:58.551Z,7.85
2022-09-23T22:03:25.151Z,9.20
2022-09-23T22:06:21.358Z,5.13
2022-09-23T22:08:49.094Z,7.57
2022-09-23T22:11:35.077Z,7.78
2022-09-23T22:14:02.101Z,5.45
2022-09-23T22:16:32.121Z,7.85
2022-09-23T22:19:01.013Z,6.22
2022-09-23T22:21:28.781Z,5.93
2022-09-23T22:23:56.918Z,9.98
2022-09-23T22:26:23.550Z,10.05
2022-09-23T22:29:08.558Z,5.68
2022-09-23T22:31:53.239Z,10.50
2022-09-23T22:34:47.501Z,7.88
2022-09-23T22:37:06.473Z,7.30
2022-09-23T22:39:32.761Z,4.38
2022-09-23T22:41:59.366Z,5.57
2022-09-23T22:44:25.578Z,6.45
2022-09-23T22:46:51.992Z,8.10
2022-09-23T22:49:21.260Z,5.97
2022-09-23T22:51:47.493Z,10.98
2022-09-23T22:54:13.774Z,6.45
2022-09-23T22:56:39.978Z,7.20
2022-09-23T22:59:07.013Z,4.95
2022-09-23T23:01:34.069Z,7.95
2022-09-23T23:04:03.692Z,7.47
2022-09-23T23:06:35.984Z,8.05
2022-09-23T23:09:07.342Z,7.75
2022-09-23T23:11:33.686Z,8.40
2022-09-23T23:14:02.081Z,10.20
2022-09-23T23:16:29.431Z,4.90
2022-09-23T23:18:56.097Z,6.18
2022-09-23T23:21:22.349Z,5.72
2022-09-23T23:23:50.204Z,6.45
2022-09-23T23:26:19.797Z,6.70
2022-09-23T23:28:46.591Z,6.97
2022-09-23T23:31:13.956Z,6.50
2022-09-23T23:33:41.834Z,8.60
2022-09-23T23:36:08.376Z,8.00
2022-09-23T23:38:35.470Z,7.82
2022-09-23T23:41:02.532Z,10.15
2022-09-23T23:43:28.877Z,7.63
2022-09-23T23:45:56.161Z,9.55
2022-09-23T23:48:22.475Z,9.05
2022-09-23T23:50:58.095Z,10.02
2022-09-23T23:53:44.572Z,9.88
2022-09-23T23:56:12.377Z,10.80
2022-09-23T23:58:39.280Z,7.13
